Flight Briefing for CPX210

Departure Arrival
Miami International Airport (KMIA)
Click to view FAA NOTAMS
Benito Juárez International Airport (MMMX)
Click to view FAA NOTAMS
Departure Time Arrival Time
0200 UTC 0500 UTC
Aircraft Distance
B767-300BDSF 1190nm
Departure METAR Arrival METAR
KMIA 200853Z 33007KT 10SM BKN004 BKN031 OVC050 18/18 A2995 RMK AO2 RAE02 SLP143 P0000 60000 T01830183 56014 MMMX 200845Z 07006KT 9SM SKC 10/05 A3027 NOSIG RMK SLP094 57006 902 HZY
Suggested Route
MNATE2 MNATE MTH B646 CANOA UB646 XOPGI UR522 NUBEL UT31 PAZ UJ55 DATUL DATUL4A


View recent IFR Routes data
Notes



Charts and Procedures

Charts for KMIA
No chart available
Charts for MMMX
No chart available

Windy.com Weather Map